Polo, South Dakota
Current Conditions -  °F | °C
As of 6:55 PM on Tuesday 25 Nov 2014 (Local Time) from KHON Reporting Station
Broken Clouds Broken Clouds  
Wind Chill: 25°   Ceiling: 11000
Heat Index: 33°   Visibility: 10mi
Dew Point: 25°   Wind: 9mph
Humidity: 72%   Direction: 130°SE
Pressure: 29.78"   Gusts: NA
Location:  44.8386°N, 99.1119°W
Report Text: KHON 260055Z AUTO 13008KT 10SM FEW060 SCT090 BKN110 01/M04 A2978 RMK AO2 SLP099 T00061039
Loading
Personal Weather Stations






























Interactive Weather Map New forecast layout! Learn more

10-Day Weather Forecast

Advertisements
Track Severe Weather on mobile